Time;durP1;ratioP1;P1;durP2;ratioP2;P2;SDS_P1;SDS_P2;PMS_P1;PMS_P2;Temp;Humidity;BMP_temperature;BMP_pressure;BME280_temperature;BME280_humidity;BME280_pressure;Samples;Min_cycle;Max_cycle;Signal;HPM_P1;HPM_P2
2021/12/27 00:00:20;;;;;;;0.20;0.20;;;3.20;99.90;;;2.77;100.00;99857.09;4945193;28;20208;-83
2021/12/27 00:02:53;;;;;;;0.10;0.10;;;3.20;99.90;;;2.76;100.00;99856.22;4957266;28;20218;-83
2021/12/27 00:05:21;;;;;;;0.10;0.10;;;;;;;2.81;100.00;99857.25;4945216;28;20209;-83
2021/12/27 00:07:51;;;;;;;0.10;0.10;;;;;;;2.82;100.00;99855.53;4943350;28;20232;-83
2021/12/27 00:10:22;;;;;;;0.10;0.10;;;3.30;99.90;;;2.84;100.00;99854.72;4986328;23;20231;-82
2021/12/27 00:12:51;;;;;;;0.20;0.20;;;;;;;2.80;100.00;99858.09;4962165;28;20216;-85
2021/12/27 00:15:19;;;;;;;0.10;0.10;;;;;;;2.82;100.00;99856.41;4995520;28;20211;-82
2021/12/27 00:17:48;;;;;;;0.10;0.10;;;3.30;99.90;;;2.82;100.00;99853.81;4978347;28;20207;-82
2021/12/27 00:20:19;;;;;;;0.30;0.30;;;3.30;99.90;;;2.84;100.00;99859.06;4990602;28;20216;-82
2021/12/27 00:22:49;;;;;;;0.10;0.10;;;3.30;99.90;;;2.82;100.00;99859.03;4925071;28;20204;-82
2021/12/27 00:25:18;;;;;;;0.10;0.10;;;;;;;2.83;100.00;99860.78;4990456;28;20205;-82
2021/12/27 00:27:46;;;;;;;0.10;0.10;;;;;;;2.84;100.00;99848.63;4977952;28;20208;-82
2021/12/27 00:30:15;;;;;;;0.10;0.10;;;3.30;99.90;;;2.83;100.00;99858.19;4974856;28;20235;-82
2021/12/27 00:32:44;;;;;;;0.10;0.10;;;;;;;2.81;100.00;99853.75;4995054;28;20232;-84
2021/12/27 00:35:14;;;;;;;0.10;0.10;;;3.30;99.90;;;2.81;100.00;99857.25;4957557;28;20212;-82
2021/12/27 00:37:43;;;;;;;0.10;0.10;;;;;;;2.86;100.00;99857.41;4947448;28;20212;-82
2021/12/27 00:40:12;;;;;;;0.10;0.10;;;3.30;99.90;;;2.84;100.00;99853.84;4960122;28;20240;-82
2021/12/27 00:42:40;;;;;;;0.10;0.10;;;;;;;2.85;100.00;99855.63;4961219;28;20205;-82
2021/12/27 00:45:10;;;;;;;0.10;0.10;;;3.30;99.90;;;2.87;100.00;99860.06;4960792;28;20209;-82
2021/12/27 00:47:39;;;;;;;0.10;0.10;;;;;;;2.86;100.00;99854.78;4977496;28;20217;-82
2021/12/27 00:50:08;;;;;;;0.10;0.10;;;3.30;99.90;;;2.87;100.00;99852.22;5001485;28;20228;-82
2021/12/27 00:52:36;;;;;;;0.10;0.10;;;;;;;2.88;100.00;99854.00;4963490;28;20212;-82
2021/12/27 00:55:07;;;;;;;0.10;0.10;;;3.30;99.90;;;2.88;100.00;99858.31;4966773;28;20197;-84
2021/12/27 00:57:36;;;;;;;0.10;0.10;;;3.30;99.90;;;2.88;100.00;99858.31;4939442;28;20200;-82
2021/12/27 01:00:11;;;;;;;0.38;0.38;;;3.30;99.90;;;2.90;100.00;99867.09;4979302;28;20223;-84
2021/12/27 01:02:40;;;;;;;0.10;0.10;;;;;;;2.90;100.00;99861.88;4994444;28;20205;-82
2021/12/27 01:05:09;;;;;;;0.10;0.10;;;3.30;99.90;;;2.91;100.00;99854.91;4978045;28;20216;-82
2021/12/27 01:07:38;;;;;;;0.10;0.10;;;;;;;2.92;100.00;99851.47;4960040;28;20201;-81
2021/12/27 01:13:03;;;;;;;0.10;0.10;;;3.30;99.90;;;2.91;100.00;99865.38;4969140;28;20211;-84
2021/12/27 01:18:02;;;;;;;0.10;0.10;;;;;;;2.91;100.00;99867.97;4963154;28;20212;-81
2021/12/27 01:20:30;;;;;;;0.10;0.10;;;;;;;2.92;100.00;99864.53;4993472;28;20236;-82
2021/12/27 01:22:59;;;;;;;0.10;0.10;;;3.30;99.90;;;2.91;100.00;99867.97;4964627;28;20209;-82
2021/12/27 01:25:27;;;;;;;0.10;0.10;;;;;;;2.88;100.00;99863.53;4977584;28;20231;-81
2021/12/27 01:27:55;;;;;;;0.10;0.10;;;;;;;2.86;100.00;99858.28;4961615;28;20716;-82
2021/12/27 01:30:24;;;;;;;0.10;0.10;;;;;;;2.87;100.00;99862.66;4993301;28;20233;-82
2021/12/27 01:32:58;;;;;;;0.20;0.20;;;3.30;99.90;;;2.86;100.00;99862.63;4980743;28;20208;-82
2021/12/27 01:35:26;;;;;;;0.10;0.10;;;;;;;2.88;100.00;99864.44;4946226;28;20204;-83
2021/12/27 01:37:55;;;;;;;0.10;0.10;;;3.30;99.90;;;2.86;100.00;99860.88;4994574;28;20209;-82
2021/12/27 01:40:27;;;;;;;0.10;0.10;;;3.30;99.90;;;2.90;100.00;99859.25;4995242;28;20495;-84
2021/12/27 01:43:20;;;;;;;0.10;0.10;;;3.30;99.90;;;2.87;100.00;99852.22;4976905;28;20216;-82
2021/12/27 01:45:50;;;;;;;0.10;0.10;;;3.30;99.90;;;2.92;100.00;99861.91;5007199;28;20205;-81
2021/12/27 01:48:23;;;;;;;0.20;0.20;;;3.40;99.90;;;2.95;100.00;99862.00;4972148;28;20205;-82
2021/12/27 01:50:54;;;;;;;0.10;0.10;;;3.40;99.90;;;3.00;100.00;99865.63;4978265;28;20209;-82
2021/12/27 01:53:26;;;;;;;0.10;0.10;;;3.40;99.90;;;3.03;100.00;99863.13;4944943;28;20207;-82
2021/12/27 01:55:55;;;;;;;0.20;0.20;;;;;;;2.98;100.00;99870.81;4990771;28;20228;-82
2021/12/27 01:58:25;;;;;;;0.13;0.13;;;3.40;99.90;;;2.98;100.00;99869.94;4927819;28;20584;-82
2021/12/27 02:00:56;;;;;;;0.10;0.10;;;3.50;99.90;;;3.00;100.00;99871.75;4957026;28;20201;-81
2021/12/27 02:03:30;;;;;;;0.10;0.10;;;3.50;99.90;;;3.03;100.00;99870.97;4975402;28;20201;-83
2021/12/27 02:06:00;;;;;;;0.10;0.10;;;3.50;99.90;;;3.01;100.00;99867.41;4978650;28;20237;-83
2021/12/27 02:08:30;;;;;;;0.10;0.10;;;3.50;99.90;;;3.02;100.00;99866.56;4971465;28;20212;-83
2021/12/27 02:10:58;;;;;;;0.10;0.10;;;3.50;99.90;;;3.02;100.00;99863.97;4989211;28;20213;-82
2021/12/27 02:13:26;;;;;;;0.10;0.10;;;;;;;3.05;100.00;99853.59;4975128;28;20202;-82
2021/12/27 02:15:54;;;;;;;0.20;0.20;;;3.60;99.90;;;3.04;100.00;99851.84;5007888;28;20215;-82
2021/12/27 02:18:22;;;;;;;0.10;0.10;;;;;;;3.03;100.00;99857.91;4955476;28;20208;-82
2021/12/27 02:20:51;;;;;;;0.10;0.10;;;3.50;99.90;;;3.01;100.00;99856.97;4974661;28;20220;-82
2021/12/27 02:23:22;;;;;;;0.10;0.10;;;;;;;3.01;100.00;99852.63;4999168;28;20220;-83
2021/12/27 02:25:51;;;;;;;0.10;0.10;;;3.50;99.90;;;3.01;100.00;99855.25;4981998;28;20213;-82
2021/12/27 02:28:20;;;;;;;0.10;0.10;;;3.40;99.90;;;3.01;100.00;99846.50;4971668;28;20205;-83
2021/12/27 02:30:52;;;;;;;0.10;0.10;;;3.50;99.90;;;3.03;100.00;99850.06;4976112;28;20235;-82
2021/12/27 02:33:20;;;;;;;0.10;0.10;;;3.50;99.90;;;3.02;100.00;99849.19;5005190;28;20216;-84
2021/12/27 02:35:55;;;;;;;0.10;0.10;;;3.50;99.90;;;3.02;100.00;99854.41;4960550;28;20702;-82
2021/12/27 02:38:30;;;;;;;0.20;0.20;;;3.40;99.90;;;3.02;100.00;99853.50;4974140;28;20209;-83
2021/12/27 02:40:59;;;;;;;0.10;0.10;;;3.40;99.90;;;3.02;100.00;99848.28;4962003;28;20200;-83
2021/12/27 02:43:30;;;;;;;0.10;0.10;;;3.50;99.90;;;3.05;100.00;99851.88;4942931;28;20205;-82
2021/12/27 02:46:09;;;;;;;0.10;0.10;;;3.50;99.90;;;3.05;100.00;99864.06;4974274;28;20201;-82
2021/12/27 02:48:46;;;;;;;0.10;0.10;;;3.50;99.90;;;3.02;100.00;99863.97;4959463;28;20228;-82
2021/12/27 02:51:18;;;;;;;0.10;0.10;;;3.50;99.90;;;3.03;100.00;99855.28;4959715;28;20197;-82
2021/12/27 02:53:50;;;;;;;0.10;0.10;;;3.50;99.90;;;3.03;100.00;99856.16;4972736;28;20197;-83
2021/12/27 02:56:19;;;;;;;0.20;0.20;;;3.50;99.90;;;3.02;100.00;99856.13;4973630;28;20201;-83
2021/12/27 02:58:48;;;;;;;0.10;0.10;;;3.50;99.90;;;3.01;100.00;99857.84;4960410;28;20695;-83
2021/12/27 03:01:21;;;;;;;0.10;0.10;;;3.50;99.90;;;3.03;100.00;99860.50;4989769;28;20220;-83
2021/12/27 03:03:51;;;;;;;0.10;0.10;;;3.50;99.90;;;3.02;100.00;99851.78;4989280;28;20200;-83
2021/12/27 03:06:19;;;;;;;0.10;0.10;;;3.50;99.90;;;3.02;100.00;99851.78;4943003;28;20208;-84
2021/12/27 03:08:48;;;;;;;0.20;0.20;;;;;;;2.99;100.00;99853.41;4949855;28;20240;-82
2021/12/27 03:11:17;;;;;;;0.22;0.22;;;;;;;2.99;100.00;99846.47;4965908;28;20216;-82
2021/12/27 03:13:50;;;;;;;0.10;0.10;;;3.50;99.90;;;3.02;100.00;99851.78;4956432;28;20686;-82
2021/12/27 03:16:21;;;;;;;0.10;0.10;;;3.50;99.90;;;3.01;100.00;99846.50;4967085;28;20219;-83
2021/12/27 03:18:53;;;;;;;0.47;0.47;;;3.50;99.90;;;2.96;100.00;99832.44;4937431;28;20231;-84
2021/12/27 03:21:21;;;;;;;0.10;0.10;;;;;;;2.95;100.00;99828.94;4968004;28;20228;-83
2021/12/27 03:23:49;;;;;;;0.20;0.20;;;3.50;99.90;;;2.96;100.00;99833.31;4991139;28;20223;-83
2021/12/27 03:26:19;;;;;;;0.10;0.10;;;3.50;99.90;;;2.97;100.00;99835.09;4985245;28;20208;-83
2021/12/27 03:28:48;;;;;;;0.10;0.10;;;;;;;2.93;100.00;99835.84;4927484;28;20236;-82
2021/12/27 03:31:17;;;;;;;0.10;0.10;;;3.40;99.90;;;2.92;100.00;99830.56;4971165;28;20243;-83
2021/12/27 03:33:46;;;;;;;0.10;0.10;;;;;;;2.94;100.00;99837.63;4954565;28;20211;-83
2021/12/27 03:36:14;;;;;;;0.10;0.10;;;3.40;99.90;;;2.87;100.00;99825.22;4978778;28;20209;-82
2021/12/27 03:38:47;;;;;;;0.10;0.10;;;3.40;99.90;;;2.92;100.00;99838.41;4945942;28;20221;-82
2021/12/27 03:41:18;;;;;;;0.05;0.05;;;3.40;99.90;;;2.88;100.00;99842.66;4991224;28;20205;-82
2021/12/27 03:43:47;;;;;;;0.10;0.10;;;3.30;99.90;;;2.83;100.00;99837.28;4968482;28;20208;-82
2021/12/27 03:46:16;;;;;;;0.10;0.10;;;;;;;2.84;100.00;99836.44;4944210;28;20218;-82
2021/12/27 03:48:44;;;;;;;0.47;0.47;;;;;;;2.82;100.00;99832.91;4958871;28;20239;-83
2021/12/27 03:51:12;;;;;;;0.10;0.10;;;;;;;2.83;100.00;99837.28;4963985;28;20233;-83
2021/12/27 03:53:40;;;;;;;0.10;0.10;;;3.30;99.90;;;2.86;100.00;99840.00;4958206;28;20215;-82
2021/12/27 03:56:08;;;;;;;0.10;0.10;;;;;;;2.85;100.00;99843.44;4973205;28;20216;-84
2021/12/27 03:59:51;;;;;;;0.10;0.10;;;3.30;99.90;;;2.82;100.00;99845.09;4988825;28;20220;-82
2021/12/27 04:01:35;;;;;;;0.10;0.10;;;;;;;2.79;100.00;99830.22;4963129;28;20709;-82
2021/12/27 04:04:04;;;;;;;0.10;0.10;;;3.30;99.90;;;2.83;100.00;99837.28;4945209;28;20200;-82
2021/12/27 04:06:32;;;;;;;0.10;0.10;;;3.30;99.90;;;2.83;100.00;99833.78;4942866;28;20216;-83
2021/12/27 04:09:00;;;;;;;0.10;0.10;;;3.30;99.90;;;2.80;100.00;99829.38;4956519;28;20235;-82
2021/12/27 04:11:28;;;;;;;0.10;0.10;;;3.00;99.90;;;2.76;100.00;99814.44;4982120;28;20220;-82
2021/12/27 04:14:02;;;;;;;0.10;0.10;;;3.20;99.90;;;2.82;100.00;99826.81;4985155;28;20212;-82
2021/12/27 04:16:30;;;;;;;0.10;0.10;;;3.30;99.90;;;2.81;100.00;99825.03;4960336;28;20196;-83
2021/12/27 04:18:58;;;;;;;0.10;0.10;;;3.20;99.90;;;2.79;100.00;99831.94;4994463;28;20235;-83
2021/12/27 04:21:26;;;;;;;0.10;0.10;;;;;;;2.81;100.00;99833.75;4943146;28;20212;-82
2021/12/27 04:23:54;;;;;;;0.20;0.20;;;3.20;99.90;;;2.82;100.00;99837.25;4975692;28;20208;-82
2021/12/27 04:26:23;;;;;;;0.10;0.10;;;3.20;99.90;;;2.78;100.00;99835.38;4990610;28;20216;-82
2021/12/27 04:28:51;;;;;;;0.10;0.10;;;3.20;99.90;;;2.78;100.00;99841.50;4974549;28;20232;-82
2021/12/27 04:31:19;;;;;;;0.20;0.20;;;3.30;99.90;;;2.75;100.00;99838.78;4958016;28;20229;-82
2021/12/27 04:33:48;;;;;;;0.10;0.10;;;;;;;2.77;100.00;99844.06;4955916;28;20204;-82
2021/12/27 04:36:16;;;;;;;0.10;0.10;;;3.20;99.90;;;2.79;100.00;99845.88;4996400;28;20212;-83
2021/12/27 04:38:44;;;;;;;0.10;0.10;;;3.10;99.90;;;2.79;100.00;99839.75;4940156;28;20699;-85
2021/12/27 04:41:16;;;;;;;0.10;0.10;;;3.30;99.90;;;2.82;100.00;99839.84;5003899;28;20208;-83
2021/12/27 04:43:44;;;;;;;0.10;0.10;;;3.30;99.90;;;2.85;100.00;99845.16;4990124;28;20197;-82
2021/12/27 04:46:12;;;;;;;0.10;0.10;;;3.30;99.90;;;2.85;100.00;99829.50;4973563;28;20216;-82
2021/12/27 04:48:41;;;;;;;0.10;0.10;;;;;;;2.86;100.00;99832.16;4974062;28;20236;-82
2021/12/27 04:51:09;;;;;;;0.10;0.10;;;;;;;2.88;100.00;99825.25;5007587;28;20229;-82
2021/12/27 04:53:37;;;;;;;0.10;0.10;;;3.40;99.90;;;2.83;100.00;99816.41;5006502;28;20217;-82
2021/12/27 04:56:05;;;;;;;0.10;0.10;;;3.20;99.90;;;2.87;100.00;99825.22;4954519;28;20209;-82
2021/12/27 04:58:33;;;;;;;0.10;0.10;;;3.30;99.90;;;2.84;100.00;99820.78;4972447;28;20233;-84
2021/12/27 05:01:01;;;;;;;0.20;0.20;;;3.40;99.90;;;2.88;100.00;99829.59;4956085;28;20220;-83
2021/12/27 05:03:29;;;;;;;0.85;0.85;;;3.40;99.90;;;2.89;100.00;99820.94;4981691;28;20216;-82
2021/12/27 05:05:57;;;;;;;0.10;0.10;;;;;;;2.89;100.00;99821.81;4974475;28;20644;-83
2021/12/27 05:08:25;;;;;;;0.10;0.10;;;3.40;99.90;;;2.91;100.00;99823.59;4947505;28;20205;-82
2021/12/27 05:10:53;;;;;;;0.10;0.10;;;;;;;2.91;100.00;99821.84;4985599;28;20256;-82
2021/12/27 05:13:21;;;;;;;0.30;0.30;;;3.40;99.90;;;2.93;100.00;99824.50;4986231;28;20205;-83
2021/12/27 05:15:49;;;;;;;0.10;0.10;;;;;;;2.95;100.00;99823.72;4941312;28;20682;-83
2021/12/27 05:18:17;;;;;;;0.10;0.10;;;3.40;99.90;;;2.96;100.00;99820.25;4969524;28;20216;-83
2021/12/27 05:20:45;;;;;;;0.10;0.10;;;3.40;99.90;;;3.00;100.00;99824.75;4960507;28;20204;-82
2021/12/27 05:23:13;;;;;;;0.10;0.10;;;3.50;99.90;;;3.00;100.00;99816.91;4957743;28;20205;-82
2021/12/27 05:25:41;;;;;;;0.10;0.10;;;3.50;99.90;;;2.98;100.00;99810.75;4985582;28;20204;-83
2021/12/27 05:28:09;;;;;;;0.10;0.10;;;3.50;99.90;;;3.03;100.00;99816.09;4960516;28;20201;-82
2021/12/27 05:30:39;;;;;;;0.10;0.10;;;3.50;99.90;;;3.07;100.00;99812.75;4981022;28;20213;-82
2021/12/27 05:33:07;;;;;;;0.10;0.10;;;3.50;99.90;;;3.05;100.00;99815.31;4930265;28;20204;-82
2021/12/27 05:35:36;;;;;;;0.10;0.10;;;;;;;3.08;100.00;99820.63;4960402;28;20207;-83
2021/12/27 05:38:04;;;;;;;0.10;0.10;;;;;;;3.10;100.00;99815.44;5008799;28;20205;-84
2021/12/27 05:40:32;;;;;;;0.10;0.10;;;3.50;99.90;;;3.06;100.00;99804.00;4991931;28;20220;-82
2021/12/27 05:43:01;;;;;;;0.10;0.10;;;;;;;3.08;100.00;99804.06;4961165;28;20201;-83
2021/12/27 05:45:29;;;;;;;0.10;0.10;;;3.50;99.90;;;3.11;100.00;99797.19;4988924;28;20219;-82
2021/12/27 05:47:58;;;;;;;0.95;0.95;;;;;;;3.14;100.00;99799.91;4945184;28;20204;-82
2021/12/27 05:50:26;;;;;;;1.10;1.10;;;;;;;3.15;100.00;99795.56;4976285;28;20224;-83
2021/12/27 05:52:54;;;;;;;0.10;0.10;;;;;;;3.15;100.00;99798.16;4944499;28;20235;-84
2021/12/27 05:55:23;;;;;;;0.10;0.10;;;3.60;99.90;;;3.19;100.00;99793.06;4977027;28;20201;-81
2021/12/27 05:57:51;;;;;;;0.10;0.10;;;;;;;3.23;100.00;99794.03;4982891;28;20220;-81
2021/12/27 06:00:20;;;;;;;0.10;0.10;;;3.70;99.90;;;3.21;100.00;99794.00;4946445;28;20225;-82
2021/12/27 06:02:51;;;;;;;0.10;0.10;;;;;;;3.18;100.00;99799.13;4970345;28;20217;-82
2021/12/27 06:05:20;;;;;;;0.10;0.10;;;3.60;99.90;;;3.17;100.00;99791.25;4993235;28;20204;-82
2021/12/27 06:07:49;;;;;;;0.10;0.10;;;3.60;99.90;;;3.16;100.00;99784.25;4945171;28;20204;-79
2021/12/27 06:10:18;;;;;;;0.10;0.10;;;3.60;99.90;;;3.16;100.00;99787.75;4946990;28;20228;-82
2021/12/27 06:12:48;;;;;;;0.10;0.10;;;;;;;3.19;100.00;99779.13;4977505;28;20231;-84
2021/12/27 06:15:16;;;;;;;0.10;0.10;;;;;;;3.20;100.00;99773.06;4960484;28;20205;-84
2021/12/27 06:17:44;;;;;;;0.10;0.10;;;;;;;3.22;100.00;99774.88;4977724;28;20686;-83
2021/12/27 06:20:15;;;;;;;0.10;0.10;;;3.70;99.90;;;3.20;100.00;99778.28;4972230;28;20236;-83
2021/12/27 06:22:50;;;;;;;0.10;0.10;;;3.60;99.90;;;3.19;100.00;99766.06;4951561;28;20220;-83
2021/12/27 06:25:18;;;;;;;0.20;0.20;;;;;;;3.17;100.00;99776.47;4960382;28;20207;-83
2021/12/27 06:27:46;;;;;;;0.17;0.17;;;3.60;99.90;;;3.17;100.00;99775.59;4948737;28;20205;-84
2021/12/27 06:30:15;;;;;;;0.10;0.10;;;3.60;99.90;;;3.18;100.00;99780.84;4960327;28;20228;-84
2021/12/27 06:32:45;;;;;;;0.10;0.10;;;;;;;3.17;100.00;99771.25;4998813;28;20221;-84
2021/12/27 06:35:15;;;;;;;0.10;0.10;;;3.60;99.90;;;3.18;100.00;99772.13;4963192;28;20211;-84
2021/12/27 06:37:46;;;;;;;0.10;0.10;;;3.60;99.90;;;3.19;100.00;99772.16;4951541;28;20216;-84
2021/12/27 06:40:18;;;;;;;0.10;0.10;;;3.60;99.90;;;3.20;100.00;99778.28;4976514;28;20227;-85
2021/12/27 06:42:46;;;;;;;0.10;0.10;;;3.60;99.90;;;3.21;100.00;99777.44;4956213;28;20205;-86
2021/12/27 06:45:15;;;;;;;0.77;0.77;;;;;;;3.22;100.00;99773.97;4973861;28;20204;-85
2021/12/27 06:47:44;;;;;;;0.10;0.10;;;;;;;3.21;100.00;99769.59;4991427;28;20236;-85
2021/12/27 06:50:12;;;;;;;0.10;0.10;;;;;;;3.22;100.00;99773.97;4983544;28;20231;-85
2021/12/27 06:52:41;;;;;;;0.10;0.10;;;;;;;3.22;100.00;99771.38;4976646;28;20209;-85
2021/12/27 06:55:11;;;;;;;0.10;0.10;;;3.60;99.90;;;3.20;100.00;99775.66;4942320;28;20208;-85
2021/12/27 06:57:40;;;;;;;0.10;0.10;;;;;;;3.21;100.00;99772.22;4988899;28;20207;-85
2021/12/27 07:00:12;;;;;;;0.10;0.10;;;3.60;99.90;;;3.20;100.00;99766.09;4971784;28;20232;-85
2021/12/27 07:02:41;;;;;;;0.10;0.10;;;3.60;99.90;;;3.21;100.00;99772.22;4991032;28;20581;-85
2021/12/27 07:05:11;;;;;;;0.20;0.20;;;3.60;99.90;;;3.22;100.00;99769.66;4951312;28;20208;-85
2021/12/27 07:07:41;;;;;;;0.10;0.10;;;3.60;99.90;;;3.21;100.00;99759.16;4965623;28;20206;-81
2021/12/27 07:10:12;;;;;;;0.10;0.10;;;3.60;99.90;;;3.22;100.00;99771.38;4978695;28;20236;-85
2021/12/27 07:12:40;;;;;;;0.10;0.10;;;;;;;3.25;100.00;99766.22;4928580;28;20229;-85
2021/12/27 07:15:09;;;;;;;0.10;0.10;;;3.60;99.90;;;3.28;100.00;99771.53;4959462;28;20219;-85
2021/12/27 07:17:37;;;;;;;0.10;0.10;;;3.70;99.90;;;3.32;100.00;99782.97;4975644;28;20200;-84
2021/12/27 07:20:06;;;;;;;0.50;0.50;;;3.70;99.90;;;3.34;100.00;99781.28;4961785;28;20260;-83
2021/12/27 07:22:35;;;;;;;0.10;0.10;;;3.70;99.90;;;3.37;100.00;99783.97;4960837;28;20203;-84
2021/12/27 07:25:04;;;;;;;0.10;0.10;;;3.70;99.90;;;3.38;100.00;99789.25;4964501;28;20204;-85
2021/12/27 07:27:32;;;;;;;0.10;0.10;;;;;;;3.38;100.00;99780.50;4992713;28;20597;-85
2021/12/27 07:30:02;;;;;;;0.20;0.20;;;;;;;3.39;100.00;99784.91;4946599;28;20228;-85
2021/12/27 07:32:30;;;;;;;0.10;0.10;;;;;;;3.39;100.00;99783.16;4962222;28;20217;-85
2021/12/27 07:34:58;;;;;;;0.10;0.10;;;;;;;3.42;100.00;99784.97;4973020;28;20215;-83
2021/12/27 07:37:27;;;;;;;0.10;0.10;;;;;;;3.41;100.00;99786.72;4974667;28;20216;-83
2021/12/27 07:39:55;;;;;;;0.10;0.10;;;;;;;3.41;100.00;99784.09;4960721;28;20228;-83
2021/12/27 07:42:23;;;;;;;0.10;0.10;;;;;;;3.41;100.00;99778.88;4947445;28;20220;-82
2021/12/27 07:44:51;;;;;;;0.10;0.10;;;3.80;99.90;;;3.43;100.00;99774.56;4956719;28;20594;-82
2021/12/27 07:47:20;;;;;;;0.10;0.10;;;;;;;3.47;100.00;99783.38;4950164;28;20205;-82
2021/12/27 07:49:48;;;;;;;0.10;0.10;;;3.80;99.90;;;3.44;100.00;99789.41;4982845;28;20220;-82
2021/12/27 07:52:16;;;;;;;0.10;0.10;;;;;;;3.46;100.00;99781.59;4973678;28;20233;-83
2021/12/27 07:54:44;;;;;;;0.10;0.10;;;3.80;99.90;;;3.48;100.00;99788.66;4995839;28;20207;-82
2021/12/27 07:57:13;;;;;;;0.10;0.10;;;;;;;3.50;100.00;99788.69;4981679;28;20213;-81
2021/12/27 07:59:42;;;;;;;0.10;0.10;;;;;;;3.53;100.00;99789.66;5008124;28;20228;-81
2021/12/27 08:02:13;;;;;;;0.30;0.30;;;3.90;99.90;;;3.56;100.00;99801.03;4952965;28;20201;-81
2021/12/27 08:04:42;;;;;;;0.10;0.10;;;;;;;3.60;100.00;99801.16;4974159;28;20208;-83
2021/12/27 08:07:10;;;;;;;0.10;0.10;;;;;;;3.64;100.00;99802.13;4970595;28;20201;-84
2021/12/27 08:12:35;;;;;;;0.10;0.10;;;;;;;3.71;100.00;99807.56;4996263;28;20235;-84
2021/12/27 08:15:11;;;;;;;0.10;0.10;;;4.00;99.90;;;3.75;100.00;99798.06;4953497;28;20208;-84
2021/12/27 08:17:51;;;;;;;0.10;0.10;;;;;;;3.82;100.00;99805.22;4989102;28;20205;-84
2021/12/27 08:20:33;;;;;;;0.10;0.10;;;4.10;99.90;;;3.83;100.00;99797.41;4945704;28;20229;-85
2021/12/27 08:23:18;;;;;;;0.10;0.10;;;4.20;99.90;;;3.91;100.00;99801.97;4957030;28;20671;-84
2021/12/27 08:25:47;;;;;;;0.10;0.10;;;4.20;99.90;;;3.92;100.00;99790.69;4961105;28;20205;-84
2021/12/27 08:28:16;;;;;;;0.10;0.10;;;4.30;99.90;;;3.96;100.00;99800.38;4976878;28;20212;-83
2021/12/27 08:30:44;;;;;;;0.08;0.08;;;;;;;4.02;100.00;99801.41;4973962;28;20204;-84
2021/12/27 08:33:16;;;;;;;0.10;0.10;;;;;;;4.06;100.00;99804.97;4969102;28;20232;-84
2021/12/27 08:35:44;;;;;;;0.10;0.10;;;4.40;99.90;;;4.09;100.00;99805.06;4988514;28;20204;-83
2021/12/27 08:38:13;;;;;;;0.03;0.03;;;;;;;4.18;100.00;99815.75;4935041;28;20213;-83
2021/12/27 08:40:56;;;;;;;0.30;0.30;;;4.50;99.90;;;4.21;100.00;99821.06;4921362;28;20209;-83
2021/12/27 08:43:25;;;;;;;0.00;0.00;;;;;;;4.30;100.00;99817.78;4967042;28;20200;-82
2021/12/27 08:45:56;;;;;;;0.10;0.10;;;4.60;99.90;;;4.35;100.00;99814.44;4984558;28;20212;-84
2021/12/27 08:48:30;;;;;;;0.10;0.10;;;4.60;99.90;;;4.40;100.00;99822.38;4967255;28;20202;-84
2021/12/27 08:51:04;;;;;;;0.10;0.10;;;4.70;99.90;;;4.45;100.00;99813.78;4985677;28;20232;-84
2021/12/27 08:53:32;;;;;;;0.20;0.20;;;;;;;4.52;100.00;99803.47;4943203;28;20213;-84
2021/12/27 08:56:01;;;;;;;0.10;0.10;;;;;;;4.56;100.00;99802.69;4991465;28;20201;-85
2021/12/27 08:58:44;;;;;;;0.00;0.00;;;4.90;99.90;;;4.62;100.00;99811.56;4950367;28;20229;-85
2021/12/27 09:01:13;;;;;;;0.10;0.10;;;;;;;4.68;100.00;99816.94;4995324;28;20204;-84
2021/12/27 09:03:42;;;;;;;0.10;0.10;;;;;;;4.69;100.00;99815.22;4981311;28;20196;-83
2021/12/27 09:06:10;;;;;;;0.10;0.10;;;;;;;4.70;100.00;99815.25;4977369;28;20205;-83
2021/12/27 09:08:56;;;;;;;0.10;0.10;;;5.00;99.90;;;4.76;100.00;99823.22;4957357;28;20224;-85
2021/12/27 09:11:26;;;;;;;0.10;0.10;;;;;;;4.79;100.00;99818.06;4955206;28;20216;-84
2021/12/27 09:14:04;;;;;;;0.10;0.10;;;5.30;99.90;;;4.86;100.00;99831.28;4961763;28;20228;-84
2021/12/27 09:16:46;;;;;;;0.10;0.10;;;;;;;4.91;100.00;99827.03;4977885;28;20208;-84
2021/12/27 09:20:26;;;;;;;0.20;0.20;;;5.20;99.90;;;4.97;100.00;99821.94;4989934;28;20224;-84
2021/12/27 09:23:01;;;;;;;1.42;1.33;;;5.30;99.90;;;5.01;100.00;99816.78;4957906;28;20212;-84
2021/12/27 09:25:35;;;;;;;0.00;0.00;;;;;;;4.97;100.00;99800.97;4960195;28;20201;-84
2021/12/27 09:29:07;;;;;;;0.65;0.65;;;5.30;99.90;;;5.06;100.00;99804.66;4965270;28;20200;-84
2021/12/27 09:32:44;;;;;;;0.10;0.10;;;5.40;99.90;;;5.28;100.00;99811.28;4973304;28;20202;-84
2021/12/27 09:35:43;;;;;;;0.13;0.13;;;5.60;99.90;;;5.38;100.00;99813.22;4972424;28;20197;-84
2021/12/27 09:38:33;;;;;;;0.10;0.10;;;5.70;99.90;;;5.32;100.00;99804.34;4966743;28;20200;-84
2021/12/27 09:41:02;;;;;;;0.05;0.05;;;;;;;5.33;100.00;99811.38;4943263;28;20209;-81
2021/12/27 09:43:31;;;;;;;1.50;1.45;;;;;;;5.38;100.00;99809.72;4940380;28;20198;-84
2021/12/27 09:45:59;;;;;;;0.00;0.00;;;5.70;99.90;;;5.45;100.00;99804.63;4971665;28;20291;-83
2021/12/27 09:48:27;;;;;;;2.08;1.98;;;;;;;5.46;100.00;99801.16;4958367;28;20209;-83
2021/12/27 09:50:57;;;;;;;0.20;0.20;;;5.80;99.90;;;5.53;100.00;99803.88;4960457;28;20219;-85
2021/12/27 09:53:25;;;;;;;0.43;0.43;;;;;;;5.60;100.00;99809.28;4990372;28;20217;-84
2021/12/27 09:56:09;;;;;;;0.10;0.10;;;5.90;99.90;;;5.65;100.00;99798.88;4977885;28;20216;-83
2021/12/27 09:58:39;;;;;;;0.00;0.00;;;5.90;99.90;;;5.72;100.00;99798.13;4964681;28;20224;-86
2021/12/27 10:01:08;;;;;;;0.10;0.10;;;6.00;99.90;;;5.81;100.00;99790.41;4976873;28;20208;-86
2021/12/27 10:03:48;;;;;;;0.00;0.00;;;6.10;99.90;;;5.85;100.00;99780.84;4957304;28;20212;-83
2021/12/27 10:06:19;;;;;;;0.00;0.00;;;6.20;99.90;;;5.97;100.00;99787.22;4966331;28;20201;-86
2021/12/27 10:08:52;;;;;;;0.00;0.00;;;6.20;99.90;;;6.01;100.00;99789.06;4993014;28;20239;-87
2021/12/27 10:11:34;;;;;;;0.08;0.08;;;6.30;99.90;;;6.04;100.00;99782.97;4955600;28;20224;-86
2021/12/27 10:14:08;;;;;;;0.00;0.00;;;6.40;99.90;;;6.03;100.00;99775.97;4966759;28;20233;-86
2021/12/27 10:17:23;;;;;;;0.10;0.10;;;6.40;99.90;;;6.02;100.00;99769.81;4958999;28;20204;-85
2021/12/27 10:19:53;;;;;;;0.20;0.20;;;6.40;99.90;;;6.09;100.00;99776.06;4931130;29;20230;-86
2021/12/27 10:22:24;;;;;;;0.00;0.00;;;6.40;99.90;;;6.06;100.00;99766.38;4952025;28;20211;-87
2021/12/27 10:24:55;;;;;;;0.10;0.10;;;;;;;6.09;100.00;99776.06;4933362;28;20591;-86
2021/12/27 10:27:24;;;;;;;0.00;0.00;;;6.50;99.90;;;6.14;100.00;99774.38;4959832;28;20200;-87
2021/12/27 10:29:53;;;;;;;0.08;0.08;;;;;;;6.19;100.00;99777.97;4952121;28;20228;-86
2021/12/27 10:32:21;;;;;;;0.10;0.10;;;;;;;6.25;100.00;99788.56;4972088;28;20209;-87
2021/12/27 10:34:51;;;;;;;0.08;0.08;;;6.60;99.90;;;6.22;100.00;99790.25;4979527;28;20233;-87
2021/12/27 10:37:29;;;;;;;0.00;0.00;;;5.30;99.90;;;6.27;100.00;99793.84;4959253;28;20519;-86
2021/12/27 10:40:02;;;;;;;0.20;0.20;;;6.60;99.90;;;6.32;100.00;99786.91;4970474;28;20224;-86
2021/12/27 10:42:35;;;;;;;0.17;0.17;;;6.60;99.90;;;6.27;100.00;99778.09;4977448;28;20205;-87
2021/12/27 10:45:14;;;;;;;0.00;0.00;;;6.60;99.90;;;6.22;100.00;99771.88;4987415;28;20197;-87
2021/12/27 10:47:55;;;;;;;0.10;0.10;;;;;;;6.25;100.00;99777.19;4957976;28;20212;-86
2021/12/27 10:50:27;;;;;;;0.00;0.00;;;6.70;99.90;;;6.38;100.00;99792.28;4988646;28;20232;-87
2021/12/27 10:53:05;;;;;;;0.08;0.08;;;6.70;99.90;;;6.58;100.00;99800.47;4987156;28;20213;-87
2021/12/27 10:55:46;;;;;;;0.00;0.00;;;6.90;99.90;;;6.52;100.00;99787.25;4958790;28;20205;-87
2021/12/27 10:58:20;;;;;;;0.00;0.00;;;6.90;99.90;;;6.58;100.00;99793.50;4985264;28;20203;-87
2021/12/27 11:01:07;;;;;;;0.25;0.25;;;6.90;99.90;;;6.59;100.00;99786.50;4974958;28;20220;-86
2021/12/27 11:03:51;;;;;;;0.00;0.00;;;6.90;99.90;;;6.56;100.00;99782.06;4984041;28;20204;-87
2021/12/27 11:06:24;;;;;;;0.10;0.10;;;6.90;99.90;;;6.52;100.00;99772.38;4937698;28;20209;-87
2021/12/27 11:08:53;;;;;;;0.00;0.00;;;;;;;6.59;100.00;99781.22;4984770;28;20711;-86
2021/12/27 11:11:25;;;;;;;0.00;0.00;;;7.00;99.90;;;6.53;100.00;99776.78;4946250;28;20220;-86
2021/12/27 11:13:57;;;;;;;0.00;0.00;;;7.00;99.90;;;6.57;100.00;99773.34;4960063;28;20240;-86
2021/12/27 11:16:36;;;;;;;0.00;0.00;;;;;;;6.58;100.00;99774.22;4974574;28;20212;-86